createdAt,value
2023-02-05T00:02:27.982Z,99239.38
2023-02-05T00:05:13.529Z,99223.59
2023-02-05T00:07:59.320Z,99263.00
2023-02-05T00:10:52.546Z,99205.84
2023-02-05T00:13:40.244Z,99235.31
2023-02-05T00:16:25.752Z,99011.63
2023-02-05T00:19:11.235Z,99016.44
2023-02-05T00:21:57.288Z,99091.44
2023-02-05T00:24:42.758Z,99241.63
2023-02-05T00:27:28.318Z,99111.13
2023-02-05T00:30:14.305Z,99239.22
2023-02-05T00:32:59.725Z,99232.03
2023-02-05T00:35:46.059Z,99238.16
2023-02-05T00:38:31.356Z,99210.06
2023-02-05T00:41:18.190Z,99027.22
2023-02-05T00:44:04.642Z,99244.06
2023-02-05T00:46:50.271Z,99227.34
2023-02-05T00:49:35.785Z,99236.22
2023-02-05T00:52:21.304Z,99250.97
2023-02-05T00:55:06.982Z,99001.38
2023-02-05T00:57:52.963Z,99268.72
2023-02-05T01:00:38.891Z,99263.31
2023-02-05T01:03:24.931Z,99196.22
2023-02-05T01:06:10.595Z,99050.63
2023-02-05T01:08:59.810Z,99269.91
2023-02-05T01:11:45.243Z,99079.66
2023-02-05T01:14:33.311Z,99256.22
2023-02-05T01:17:18.518Z,99018.72
2023-02-05T01:20:05.828Z,99122.16
2023-02-05T01:22:51.410Z,99071.66
2023-02-05T01:25:37.120Z,99234.41
2023-02-05T01:28:22.844Z,99210.63
2023-02-05T01:31:09.150Z,99228.06
2023-02-05T01:33:54.775Z,99061.75
2023-02-05T01:36:40.831Z,99236.19
2023-02-05T01:39:26.055Z,99230.22
2023-02-05T01:42:23.376Z,99051.81
2023-02-05T01:45:25.110Z,99286.28
2023-02-05T01:48:10.680Z,99232.13
2023-02-05T01:51:05.424Z,99287.03
2023-02-05T01:53:51.867Z,99249.72
2023-02-05T01:56:42.915Z,99255.16
2023-02-05T01:59:33.575Z,99263.00
2023-02-05T02:02:18.821Z,99258.19
2023-02-05T02:05:11.969Z,99170.63
2023-02-05T02:07:58.180Z,99236.81
2023-02-05T02:10:45.550Z,99023.88
2023-02-05T02:13:33.756Z,99208.56
2023-02-05T02:16:23.362Z,99247.94
2023-02-05T02:19:26.705Z,99268.69
2023-02-05T02:22:24.419Z,99246.47
2023-02-05T02:25:44.378Z,99024.47
2023-02-05T02:28:40.488Z,99047.94
2023-02-05T02:31:44.296Z,99288.25
2023-02-05T02:34:45.003Z,99079.91
2023-02-05T02:37:37.246Z,99253.38
2023-02-05T02:40:35.008Z,99016.19
2023-02-05T02:43:46.052Z,99292.13
2023-02-05T02:46:50.965Z,99044.88
2023-02-05T02:49:47.202Z,99269.56
2023-02-05T02:52:39.222Z,99261.78
2023-02-05T02:55:26.286Z,99075.84
2023-02-05T02:58:36.228Z,99242.19
2023-02-05T03:01:25.662Z,99082.44
2023-02-05T03:04:27.459Z,99102.28
2023-02-05T03:07:26.502Z,99272.31
2023-02-05T03:10:23.523Z,99270.81
2023-02-05T03:13:11.473Z,99054.94
2023-02-05T03:16:00.588Z,99261.28
2023-02-05T03:18:47.611Z,99290.50
2023-02-05T03:21:38.677Z,99260.88
2023-02-05T03:24:24.571Z,99288.56
2023-02-05T03:27:10.510Z,99284.69
2023-02-05T03:29:57.459Z,99112.53
2023-02-05T03:33:02.508Z,99306.94
2023-02-05T03:36:16.456Z,99057.50
2023-02-05T03:39:21.178Z,99280.91
2023-02-05T03:42:18.066Z,99313.38
2023-02-05T03:45:44.053Z,99265.38
2023-02-05T03:49:05.874Z,99296.84
2023-02-05T03:52:05.412Z,99288.25
2023-02-05T03:55:11.940Z,99286.47
2023-02-05T03:58:04.616Z,99183.69
2023-02-05T04:00:50.542Z,99263.28
2023-02-05T04:03:37.193Z,99082.69
2023-02-05T04:06:25.560Z,99278.00
2023-02-05T04:09:12.544Z,99339.09
2023-02-05T04:11:58.439Z,99293.69
2023-02-05T04:14:44.507Z,99081.84
2023-02-05T04:17:33.800Z,99275.34
2023-02-05T04:20:22.675Z,99296.66
2023-02-05T04:23:08.554Z,99258.16
2023-02-05T04:25:56.028Z,99283.59
2023-02-05T04:28:49.854Z,99237.38
2023-02-05T04:31:35.926Z,99102.84
2023-02-05T04:34:21.483Z,99307.13
2023-02-05T04:37:07.584Z,99111.84
2023-02-05T04:39:52.932Z,99305.41
2023-02-05T04:42:38.489Z,99279.19
2023-02-05T04:45:24.134Z,99121.50
2023-02-05T04:48:09.435Z,99318.63
2023-02-05T04:50:54.791Z,99276.50
2023-02-05T04:53:41.715Z,99053.50
2023-02-05T04:56:27.831Z,99117.84
2023-02-05T04:59:13.041Z,99283.09
2023-02-05T05:01:59.381Z,99302.84
2023-02-05T05:04:44.682Z,99311.72
2023-02-05T05:07:30.938Z,99318.00
2023-02-05T05:10:16.607Z,99318.16
2023-02-05T05:13:02.050Z,99316.81
2023-02-05T05:15:54.755Z,99316.50
2023-02-05T05:18:41.164Z,99318.28
2023-02-05T05:21:26.777Z,99287.22
2023-02-05T05:24:12.775Z,99301.66
2023-02-05T05:26:59.757Z,99316.16
2023-02-05T05:29:46.565Z,99237.88
2023-02-05T05:32:32.319Z,99152.94
2023-02-05T05:35:17.785Z,99338.16
2023-02-05T05:38:03.987Z,99274.91
2023-02-05T05:41:08.138Z,99332.56
2023-02-05T05:43:54.700Z,99345.50
2023-02-05T05:46:40.018Z,99122.81
2023-02-05T05:49:25.385Z,99119.78
2023-02-05T05:52:11.338Z,99316.41
2023-02-05T05:54:57.009Z,99128.78
2023-02-05T05:57:42.474Z,99385.75
2023-02-05T06:00:28.188Z,99341.06
2023-02-05T06:03:13.518Z,99391.50
2023-02-05T06:06:03.968Z,99331.13
2023-02-05T06:08:50.145Z,99125.56
2023-02-05T06:11:35.754Z,99246.41
2023-02-05T06:14:21.218Z,99397.00
2023-02-05T06:17:07.397Z,99362.28
2023-02-05T06:19:52.784Z,99362.16
2023-02-05T06:22:39.498Z,99377.19
2023-02-05T06:25:24.877Z,99383.13
2023-02-05T06:28:10.582Z,99349.00
2023-02-05T06:30:56.157Z,99361.81
2023-02-05T06:33:41.503Z,99388.03
2023-02-05T06:36:27.070Z,99362.09
2023-02-05T06:39:12.634Z,99333.44
2023-02-05T06:41:58.138Z,99416.03
2023-02-05T06:44:44.522Z,99422.03
2023-02-05T06:47:29.806Z,99434.06
2023-02-05T06:50:15.669Z,99422.53
2023-02-05T06:53:01.832Z,99421.78
2023-02-05T06:55:47.269Z,99393.13
2023-02-05T06:58:33.315Z,99329.38
2023-02-05T07:01:18.783Z,99423.28
2023-02-05T07:04:06.709Z,99240.28
2023-02-05T07:07:02.592Z,99434.09
2023-02-05T07:09:48.905Z,99437.09
2023-02-05T07:12:34.980Z,99404.84
2023-02-05T07:15:21.049Z,99337.47
2023-02-05T07:18:06.919Z,99428.53
2023-02-05T07:20:58.519Z,99418.41
2023-02-05T07:23:49.158Z,99466.00
2023-02-05T07:26:36.104Z,99447.94
2023-02-05T07:29:22.103Z,99395.81
2023-02-05T07:32:08.892Z,99281.31
2023-02-05T07:34:58.235Z,99440.78
2023-02-05T07:37:51.972Z,99440.63
2023-02-05T07:40:40.797Z,99443.34
2023-02-05T07:43:27.217Z,99423.88
2023-02-05T07:46:16.299Z,99431.97
2023-02-05T07:49:02.320Z,99442.16
2023-02-05T07:51:51.966Z,99448.28
2023-02-05T07:54:37.711Z,99469.84
2023-02-05T07:57:27.086Z,99486.25
2023-02-05T08:00:13.977Z,99450.19
2023-02-05T08:02:59.645Z,99461.53
2023-02-05T08:05:46.085Z,99508.16
2023-02-05T08:08:34.388Z,99467.81
2023-02-05T08:11:19.892Z,99462.53
2023-02-05T08:14:06.597Z,99509.09
2023-02-05T08:16:54.905Z,99438.72
2023-02-05T08:19:43.971Z,99502.22
2023-02-05T08:22:31.856Z,99483.22
2023-02-05T08:25:18.186Z,99503.06
2023-02-05T08:28:07.259Z,99469.06
2023-02-05T08:30:53.112Z,99464.53
2023-02-05T08:33:39.333Z,99507.03
2023-02-05T08:36:24.453Z,99517.59
2023-02-05T08:39:09.798Z,99280.72
2023-02-05T08:41:57.061Z,99281.84
2023-02-05T08:44:43.477Z,99492.00
2023-02-05T08:47:29.054Z,99475.16
2023-02-05T08:50:15.649Z,99525.81
2023-02-05T08:53:02.274Z,99511.06
2023-02-05T08:55:58.605Z,99479.13
2023-02-05T08:58:44.187Z,99500.50
2023-02-05T09:01:34.642Z,99508.19
2023-02-05T09:04:23.666Z,99541.81
2023-02-05T09:07:10.295Z,99523.59
2023-02-05T09:09:56.646Z,99502.34
2023-02-05T09:12:43.185Z,99527.09
2023-02-05T09:15:32.966Z,99524.09
2023-02-05T09:18:20.021Z,99506.59
2023-02-05T09:21:10.964Z,99483.97
2023-02-05T09:23:57.461Z,99539.47
2023-02-05T09:26:49.034Z,99540.97
2023-02-05T09:29:38.292Z,99546.13
2023-02-05T09:32:25.599Z,99536.75
2023-02-05T09:35:12.669Z,99523.47
2023-02-05T09:38:10.657Z,99536.16
2023-02-05T09:41:28.279Z,99544.56
2023-02-05T09:44:53.296Z,99536.91
2023-02-05T09:48:05.019Z,99543.50
2023-02-05T09:51:01.175Z,99528.91
2023-02-05T09:53:58.496Z,99548.16
2023-02-05T09:56:46.597Z,99544.28
2023-02-05T09:59:33.702Z,99544.28
2023-02-05T10:02:42.747Z,99572.63
2023-02-05T10:05:36.838Z,99534.50
2023-02-05T10:08:47.968Z,99529.84
2023-02-05T10:11:50.681Z,99532.25
2023-02-05T10:14:57.774Z,99582.91
2023-02-05T10:17:55.932Z,99510.25
2023-02-05T10:21:39.270Z,99548.69
2023-02-05T10:24:27.904Z,99545.84
2023-02-05T10:27:22.133Z,99324.94
2023-02-05T10:30:14.198Z,99537.09
2023-02-05T10:33:07.018Z,99320.28
2023-02-05T10:36:06.802Z,99539.22
2023-02-05T10:38:57.299Z,99532.25
2023-02-05T10:41:48.796Z,99529.22
2023-02-05T10:44:46.970Z,99354.81
2023-02-05T10:48:11.420Z,99544.91
2023-02-05T10:51:08.000Z,99527.09
2023-02-05T10:53:53.755Z,99533.16
2023-02-05T10:56:43.695Z,99511.44
2023-02-05T10:59:32.850Z,99554.41
2023-02-05T11:02:30.142Z,99531.94
2023-02-05T11:05:38.941Z,99560.91
2023-02-05T11:08:34.767Z,99573.88
2023-02-05T11:11:22.484Z,99529.84
2023-02-05T11:14:20.184Z,99493.38
2023-02-05T11:17:15.717Z,99552.47
2023-02-05T11:20:05.968Z,99534.34
2023-02-05T11:23:11.487Z,99520.34
2023-02-05T11:25:59.322Z,99351.50
2023-02-05T11:28:45.182Z,99294.59
2023-02-05T11:31:37.846Z,99530.97
2023-02-05T11:34:23.461Z,99472.53
2023-02-05T11:37:17.149Z,99512.28
2023-02-05T11:40:03.294Z,99491.19
2023-02-05T11:43:19.305Z,99473.16
2023-02-05T11:46:09.828Z,99302.88
2023-02-05T11:49:03.503Z,99517.75
2023-02-05T11:51:56.301Z,99485.69
2023-02-05T11:54:47.118Z,99531.03
2023-02-05T11:57:39.250Z,99471.38
2023-02-05T12:00:25.499Z,99525.03
2023-02-05T12:03:18.366Z,99428.91
2023-02-05T12:06:12.127Z,99556.25
2023-02-05T12:08:57.592Z,99521.09
2023-02-05T12:12:04.153Z,99582.63
2023-02-05T12:15:14.679Z,99550.66
2023-02-05T12:18:27.294Z,99559.69
2023-02-05T12:21:51.912Z,99561.19
2023-02-05T12:25:00.750Z,99572.06
2023-02-05T12:28:04.900Z,99486.16
2023-02-05T12:31:02.304Z,99568.75
2023-02-05T12:34:14.997Z,99598.16
2023-02-05T12:37:06.464Z,99567.84
2023-02-05T12:40:09.745Z,99359.41
2023-02-05T12:43:02.876Z,99348.44
2023-02-05T12:45:57.799Z,99561.50
2023-02-05T12:49:01.946Z,99556.25
2023-02-05T12:52:11.750Z,99561.50
2023-02-05T12:55:03.977Z,99562.41
2023-02-05T12:58:03.626Z,99556.06
2023-02-05T13:00:57.205Z,99555.78
2023-02-05T13:03:48.525Z,99543.41
2023-02-05T13:06:45.523Z,99563.63
2023-02-05T13:09:56.595Z,99570.69
2023-02-05T13:12:48.805Z,99450.84
2023-02-05T13:15:42.011Z,99476.75
2023-02-05T13:18:32.907Z,99408.97
2023-02-05T13:21:38.490Z,99563.00
2023-02-05T13:24:57.487Z,99465.84
2023-02-05T13:28:08.635Z,99572.69
2023-02-05T13:30:57.974Z,99551.38
2023-02-05T13:33:44.542Z,99553.66
2023-02-05T13:36:36.254Z,99559.41
2023-02-05T13:39:46.620Z,99598.00
2023-02-05T13:42:41.552Z,99566.34
2023-02-05T13:45:49.343Z,99571.63
2023-02-05T13:48:53.627Z,99348.66
2023-02-05T13:51:47.661Z,99606.09
2023-02-05T13:54:58.565Z,99572.63
2023-02-05T13:58:09.211Z,99563.00
2023-02-05T14:01:02.210Z,99572.03
2023-02-05T14:04:08.853Z,99570.53
2023-02-05T14:07:02.051Z,99618.75
2023-02-05T14:09:56.987Z,99606.53
2023-02-05T14:12:42.439Z,99534.31
2023-02-05T14:15:41.123Z,99637.47
2023-02-05T14:18:43.433Z,99602.22
2023-02-05T14:21:35.320Z,99425.97
2023-02-05T14:24:44.285Z,99382.97
2023-02-05T14:27:29.738Z,99378.13
2023-02-05T14:31:01.037Z,99597.06
2023-02-05T14:33:46.989Z,99492.44
2023-02-05T14:36:35.053Z,99603.78
2023-02-05T14:39:27.550Z,99524.13
2023-02-05T14:42:20.375Z,99392.78
2023-02-05T14:45:06.147Z,99612.06
2023-02-05T14:47:51.955Z,99542.00
2023-02-05T14:50:37.827Z,99604.84
2023-02-05T14:53:29.640Z,99551.41
2023-02-05T14:56:31.749Z,99630.41
2023-02-05T14:59:29.921Z,99529.06
2023-02-05T15:02:57.502Z,99591.25
2023-02-05T15:05:46.580Z,99602.53
2023-02-05T15:08:34.638Z,99600.59
2023-02-05T15:11:29.464Z,99608.44
2023-02-05T15:14:21.518Z,99635.19
2023-02-05T15:17:06.811Z,99611.38
2023-02-05T15:19:56.563Z,99517.44
2023-02-05T15:22:50.802Z,99388.56
2023-02-05T15:25:41.091Z,99622.50
2023-02-05T15:28:32.015Z,99627.28
2023-02-05T15:31:33.840Z,99576.19
2023-02-05T15:34:48.031Z,99663.09
2023-02-05T15:37:43.736Z,99403.50
2023-02-05T15:40:34.615Z,99440.16
2023-02-05T15:43:23.015Z,99631.09
2023-02-05T15:46:20.514Z,99586.16
2023-02-05T15:49:06.268Z,99656.97
2023-02-05T15:51:52.043Z,99433.78
2023-02-05T15:54:38.293Z,99625.59
2023-02-05T15:57:34.228Z,99499.28
2023-02-05T16:00:27.198Z,99439.19
2023-02-05T16:03:32.551Z,99515.81
2023-02-05T16:06:24.059Z,99712.34
2023-02-05T16:09:20.432Z,99430.38
2023-02-05T16:12:13.637Z,99591.97
2023-02-05T16:15:05.059Z,99697.31
2023-02-05T16:17:52.257Z,99642.38
2023-02-05T16:20:42.989Z,99655.06
2023-02-05T16:23:44.320Z,99611.59
2023-02-05T16:26:34.108Z,99699.75
2023-02-05T16:29:29.657Z,99444.28
2023-02-05T16:32:34.079Z,99603.31
2023-02-05T16:35:39.544Z,99615.75
2023-02-05T16:38:26.314Z,99598.84
2023-02-05T16:41:27.291Z,99665.25
2023-02-05T16:44:32.176Z,99703.34
2023-02-05T16:47:21.296Z,99697.63
2023-02-05T16:50:41.114Z,99705.75
2023-02-05T16:53:28.945Z,99491.50
2023-02-05T16:56:32.711Z,99651.25
2023-02-05T16:59:39.430Z,99552.41
2023-02-05T17:02:36.588Z,99713.25
2023-02-05T17:05:25.937Z,99666.63
2023-02-05T17:08:12.574Z,99670.28
2023-02-05T17:11:01.960Z,99695.09
2023-02-05T17:13:48.094Z,99721.06
2023-02-05T17:16:33.670Z,99692.06
2023-02-05T17:19:28.110Z,99747.28
2023-02-05T17:22:14.105Z,99753.31
2023-02-05T17:24:59.819Z,99537.94
2023-02-05T17:27:46.081Z,99704.50
2023-02-05T17:30:32.027Z,99498.75
2023-02-05T17:33:22.093Z,99720.88
2023-02-05T17:36:17.642Z,99698.25
2023-02-05T17:39:03.728Z,99691.81
2023-02-05T17:42:04.185Z,99494.72
2023-02-05T17:44:51.523Z,99762.16
2023-02-05T17:47:38.034Z,99672.56
2023-02-05T17:50:24.891Z,99735.34
2023-02-05T17:53:14.866Z,99722.50
2023-02-05T17:56:01.323Z,99672.63
2023-02-05T17:58:50.006Z,99775.06
2023-02-05T18:01:36.671Z,99737.88
2023-02-05T18:04:23.668Z,99692.97
2023-02-05T18:07:39.758Z,99745.31
2023-02-05T18:10:28.670Z,99732.16
2023-02-05T18:13:17.430Z,99505.91
2023-02-05T18:16:05.773Z,99756.72
2023-02-05T18:18:52.660Z,99748.53
2023-02-05T18:21:39.568Z,99536.03
2023-02-05T18:24:25.929Z,99725.47
2023-02-05T18:27:13.875Z,99741.97
2023-02-05T18:30:04.188Z,99707.47
2023-02-05T18:32:52.108Z,99543.19
2023-02-05T18:35:38.821Z,99696.25
2023-02-05T18:38:25.778Z,99688.94
2023-02-05T18:41:18.640Z,99556.66
2023-02-05T18:44:07.872Z,99719.28
2023-02-05T18:46:54.833Z,99754.59
2023-02-05T18:49:42.113Z,99699.81
2023-02-05T18:52:31.621Z,99765.81
2023-02-05T18:55:17.890Z,99751.69
2023-02-05T18:58:05.942Z,99667.44
2023-02-05T19:00:52.555Z,99751.03
2023-02-05T19:03:41.391Z,99783.81
2023-02-05T19:06:28.492Z,99782.53
2023-02-05T19:09:18.232Z,99792.19
2023-02-05T19:12:06.326Z,99614.91
2023-02-05T19:14:53.795Z,99582.53
2023-02-05T19:17:40.853Z,99550.78
2023-02-05T19:20:30.946Z,99807.88
2023-02-05T19:23:18.973Z,99791.75
2023-02-05T19:26:30.639Z,99806.69
2023-02-05T19:29:24.657Z,99763.38
2023-02-05T19:32:12.782Z,99784.81
2023-02-05T19:35:04.364Z,99825.75
2023-02-05T19:37:57.412Z,99828.66
2023-02-05T19:40:51.072Z,99826.22
2023-02-05T19:43:39.167Z,99841.06
2023-02-05T19:46:32.101Z,99834.50
2023-02-05T19:49:23.163Z,99830.59
2023-02-05T19:52:10.619Z,99721.66
2023-02-05T19:54:57.097Z,99838.78
2023-02-05T19:57:45.939Z,99831.97
2023-02-05T20:00:33.803Z,99836.66
2023-02-05T20:03:22.535Z,99848.09
2023-02-05T20:06:19.075Z,99864.50
2023-02-05T20:09:19.598Z,99843.06
2023-02-05T20:12:12.701Z,99840.78
2023-02-05T20:15:10.667Z,99849.06
2023-02-05T20:18:05.637Z,99819.53
2023-02-05T20:20:59.153Z,99860.09
2023-02-05T20:23:51.883Z,99687.03
2023-02-05T20:26:51.188Z,99847.97
2023-02-05T20:29:58.201Z,99848.63
2023-02-05T20:32:45.556Z,99883.66
2023-02-05T20:35:36.679Z,99811.75
2023-02-05T20:38:23.340Z,99861.41
2023-02-05T20:41:15.348Z,99852.75
2023-02-05T20:44:04.294Z,99839.47
2023-02-05T20:46:53.337Z,99845.09
2023-02-05T20:49:45.315Z,99834.31
2023-02-05T20:52:32.125Z,99876.81
2023-02-05T20:55:17.920Z,99730.94
2023-02-05T20:58:03.776Z,99871.41
2023-02-05T21:00:50.701Z,99643.28
2023-02-05T21:03:38.269Z,99836.06
2023-02-05T21:06:26.754Z,99900.91
2023-02-05T21:09:16.619Z,99875.00
2023-02-05T21:12:02.556Z,99745.09
2023-02-05T21:14:48.274Z,99884.66
2023-02-05T21:17:34.308Z,99841.91
2023-02-05T21:20:19.783Z,99897.00
2023-02-05T21:23:06.318Z,99914.22
2023-02-05T21:25:52.279Z,99901.25
2023-02-05T21:28:37.867Z,99886.38
2023-02-05T21:31:25.534Z,99884.66
2023-02-05T21:34:14.964Z,99898.50
2023-02-05T21:37:01.030Z,99900.34
2023-02-05T21:39:48.065Z,99940.44
2023-02-05T21:42:34.592Z,99873.41
2023-02-05T21:45:20.593Z,99919.72
2023-02-05T21:48:07.130Z,99717.13
2023-02-05T21:50:53.468Z,99931.91
2023-02-05T21:53:40.353Z,99757.25
2023-02-05T21:56:31.737Z,99976.28
2023-02-05T21:59:20.306Z,99930.78
2023-02-05T22:02:06.435Z,99920.16
2023-02-05T22:04:52.285Z,99766.53
2023-02-05T22:07:38.671Z,99937.75
2023-02-05T22:10:24.874Z,99931.22
2023-02-05T22:13:11.390Z,99963.53
2023-02-05T22:16:12.229Z,99695.94
2023-02-05T22:19:00.134Z,99968.63
2023-02-05T22:21:45.452Z,99913.59
2023-02-05T22:24:30.990Z,99930.78
2023-02-05T22:27:17.646Z,99926.53
2023-02-05T22:30:04.185Z,99941.84
2023-02-05T22:32:50.332Z,99941.16
2023-02-05T22:35:36.038Z,99706.41
2023-02-05T22:38:22.273Z,99928.63
2023-02-05T22:41:17.155Z,99906.22
2023-02-05T22:44:05.986Z,99950.72
2023-02-05T22:46:56.141Z,99965.38
2023-02-05T22:49:42.420Z,99838.69
2023-02-05T22:52:27.968Z,99799.97
2023-02-05T22:55:13.838Z,99898.44
2023-02-05T22:57:59.457Z,99977.75
2023-02-05T23:00:45.243Z,99968.72
2023-02-05T23:03:30.868Z,99933.19
2023-02-05T23:06:19.360Z,99932.22
2023-02-05T23:09:08.551Z,99728.03
2023-02-05T23:11:55.562Z,99899.84
2023-02-05T23:14:41.659Z,99969.06
2023-02-05T23:17:27.673Z,99970.88
2023-02-05T23:20:13.382Z,99884.06
2023-02-05T23:22:59.231Z,99974.47
2023-02-05T23:25:45.902Z,99948.91
2023-02-05T23:28:31.579Z,99963.97
2023-02-05T23:31:17.264Z,99978.38
2023-02-05T23:34:04.174Z,99957.13
2023-02-05T23:36:49.667Z,99956.06
2023-02-05T23:39:36.673Z,99956.16
2023-02-05T23:42:22.403Z,99931.28
2023-02-05T23:45:08.095Z,99964.97
2023-02-05T23:47:53.477Z,99753.03
2023-02-05T23:50:39.504Z,99969.41
2023-02-05T23:53:25.583Z,100000.72
2023-02-05T23:56:11.990Z,99987.41
2023-02-05T23:58:57.909Z,99987.59
